createdAt,value
2019-04-25T00:01:06.242Z,9.30
2019-04-25T00:03:36.779Z,9.20
2019-04-25T00:06:06.265Z,9.20
2019-04-25T00:08:35.362Z,9.00
2019-04-25T00:11:04.887Z,9.00
2019-04-25T00:13:33.809Z,8.80
2019-04-25T00:16:02.701Z,8.90
2019-04-25T00:18:31.911Z,8.90
2019-04-25T00:21:07.123Z,8.70
2019-04-25T00:23:36.898Z,8.60
2019-04-25T00:26:27.819Z,8.50
2019-04-25T00:28:56.962Z,8.40
2019-04-25T00:31:26.077Z,8.30
2019-04-25T00:33:55.072Z,8.30
2019-04-25T00:36:24.048Z,8.20
2019-04-25T00:38:53.320Z,8.10
2019-04-25T00:41:22.201Z,8.00
2019-04-25T00:43:52.469Z,7.90
2019-04-25T00:46:22.542Z,8.00
2019-04-25T00:48:51.787Z,7.80
2019-04-25T00:51:21.838Z,7.90
2019-04-25T00:53:53.687Z,7.80
2019-04-25T00:56:22.396Z,7.70
2019-04-25T00:59:01.974Z,7.50
2019-04-25T01:01:54.074Z,7.40
2019-04-25T01:04:25.240Z,7.50
2019-04-25T01:06:54.121Z,7.50
2019-04-25T01:09:23.005Z,7.50
2019-04-25T01:11:52.371Z,7.50
2019-04-25T01:14:22.077Z,7.50
2019-04-25T01:16:52.983Z,7.60
2019-04-25T01:19:23.364Z,7.40
2019-04-25T01:21:54.168Z,7.40
2019-04-25T01:24:24.028Z,7.40
2019-04-25T01:26:53.813Z,7.30
2019-04-25T01:29:23.532Z,7.00
2019-04-25T01:31:54.415Z,7.10
2019-04-25T01:34:34.251Z,6.90
2019-04-25T01:37:13.997Z,6.40
2019-04-25T01:39:48.995Z,6.40
2019-04-25T01:42:35.433Z,6.20
2019-04-25T01:45:05.157Z,5.90
2019-04-25T01:47:34.020Z,5.90
2019-04-25T01:50:03.973Z,5.80
2019-04-25T01:52:33.447Z,6.00
2019-04-25T01:55:03.521Z,5.90
2019-04-25T01:57:33.739Z,5.90
2019-04-25T02:00:03.941Z,6.00
2019-04-25T02:02:33.567Z,6.00
2019-04-25T02:05:04.774Z,6.00
2019-04-25T02:07:33.746Z,5.90
2019-04-25T02:10:03.805Z,5.90
2019-04-25T02:12:56.317Z,5.80
2019-04-25T02:15:28.481Z,5.80
2019-04-25T02:17:59.145Z,5.80
2019-04-25T02:20:28.061Z,5.50
2019-04-25T02:22:57.846Z,5.80
2019-04-25T02:25:26.892Z,5.60
2019-04-25T02:27:57.146Z,5.60
2019-04-25T02:30:26.594Z,5.50
2019-04-25T02:32:59.035Z,5.50
2019-04-25T02:35:26.565Z,5.60
2019-04-25T02:37:59.292Z,5.50
2019-04-25T02:40:26.328Z,5.50
2019-04-25T02:42:57.321Z,5.30
2019-04-25T02:45:51.149Z,5.30
2019-04-25T02:48:38.065Z,5.30
2019-04-25T02:51:29.200Z,5.50
2019-04-25T02:53:59.488Z,5.30
2019-04-25T02:56:34.482Z,5.30
2019-04-25T02:59:00.190Z,5.60
2019-04-25T03:01:29.426Z,5.50
2019-04-25T03:03:59.368Z,5.20
2019-04-25T03:06:28.856Z,5.80
2019-04-25T03:08:58.041Z,5.30
2019-04-25T03:11:28.440Z,5.20
2019-04-25T03:13:57.774Z,5.20
2019-04-25T03:16:29.485Z,5.20
2019-04-25T03:19:14.991Z,5.10
2019-04-25T03:21:45.278Z,5.00
2019-04-25T03:24:19.597Z,4.90
2019-04-25T03:26:49.434Z,4.90
2019-04-25T03:29:18.319Z,4.70
2019-04-25T03:31:47.275Z,4.70
2019-04-25T03:34:20.480Z,4.80
2019-04-25T03:36:47.736Z,4.80
2019-04-25T03:39:16.649Z,4.70
2019-04-25T03:41:45.612Z,4.50
2019-04-25T03:44:14.821Z,4.60
2019-04-25T03:46:43.875Z,4.40
2019-04-25T03:49:14.860Z,4.40
2019-04-25T03:51:45.712Z,4.20
2019-04-25T03:54:16.624Z,4.10
2019-04-25T03:56:53.509Z,4.20
2019-04-25T03:59:18.128Z,4.00
2019-04-25T04:01:47.013Z,4.20
2019-04-25T04:04:16.853Z,4.10
2019-04-25T04:06:53.728Z,4.10
2019-04-25T04:09:29.582Z,4.40
2019-04-25T04:12:01.032Z,4.10
2019-04-25T04:14:43.687Z,4.20
2019-04-25T04:17:33.885Z,4.20
2019-04-25T04:20:20.741Z,4.20
2019-04-25T04:22:59.888Z,4.30
2019-04-25T04:25:29.844Z,4.10
2019-04-25T04:28:00.724Z,4.40
2019-04-25T04:30:45.418Z,4.60
2019-04-25T04:33:25.777Z,4.20
2019-04-25T04:35:48.339Z,4.30
2019-04-25T04:38:17.975Z,4.50
2019-04-25T04:40:55.120Z,4.60
2019-04-25T04:43:30.095Z,4.30
2019-04-25T04:45:58.977Z,4.40
2019-04-25T04:48:31.877Z,4.40
2019-04-25T04:51:03.304Z,4.70
2019-04-25T04:53:40.399Z,4.50
2019-04-25T04:56:09.679Z,4.90
2019-04-25T04:58:46.466Z,4.70
2019-04-25T05:01:18.657Z,5.10
2019-04-25T05:04:06.105Z,5.20
2019-04-25T05:07:06.165Z,5.30
2019-04-25T05:09:36.009Z,5.70
2019-04-25T05:12:04.884Z,5.60
2019-04-25T05:14:40.863Z,5.70
2019-04-25T05:17:12.211Z,5.80
2019-04-25T05:19:43.271Z,6.40
2019-04-25T05:22:20.361Z,6.30
2019-04-25T05:24:53.550Z,6.60
2019-04-25T05:27:36.082Z,6.80
2019-04-25T05:29:55.096Z,7.20
2019-04-25T05:32:31.783Z,7.40
2019-04-25T05:35:00.655Z,7.40
2019-04-25T05:37:29.683Z,7.30
2019-04-25T05:39:58.680Z,7.80
2019-04-25T05:42:47.187Z,8.00
2019-04-25T05:45:18.542Z,8.10
2019-04-25T05:47:50.491Z,8.50
2019-04-25T05:50:23.959Z,8.50
2019-04-25T05:52:54.190Z,8.50
2019-04-25T05:55:25.526Z,8.70
2019-04-25T05:57:56.396Z,8.80
2019-04-25T06:00:26.053Z,8.90
2019-04-25T06:02:55.827Z,9.00
2019-04-25T06:05:26.431Z,9.10
2019-04-25T06:07:55.342Z,9.20
2019-04-25T06:10:45.384Z,9.50
2019-04-25T06:13:39.528Z,9.40
2019-04-25T06:16:33.535Z,9.60
2019-04-25T06:19:24.323Z,9.80
2019-04-25T06:21:55.904Z,9.80
2019-04-25T06:24:40.849Z,9.90
2019-04-25T06:27:29.924Z,9.90
2019-04-25T06:30:09.144Z,10.00
2019-04-25T06:32:44.870Z,10.10
2019-04-25T06:35:14.387Z,10.20
2019-04-25T06:37:43.765Z,10.30
2019-04-25T06:40:16.775Z,10.60
2019-04-25T06:42:46.782Z,10.70
2019-04-25T06:45:28.038Z,10.90
2019-04-25T06:48:14.009Z,11.10
2019-04-25T06:50:43.795Z,11.30
2019-04-25T06:53:13.582Z,11.40
2019-04-25T06:55:46.828Z,11.50
2019-04-25T06:58:16.771Z,11.60
2019-04-25T07:00:58.152Z,11.70
2019-04-25T07:03:16.329Z,11.80
2019-04-25T07:05:45.208Z,11.90
2019-04-25T07:08:14.153Z,12.00
2019-04-25T07:10:44.591Z,12.10
2019-04-25T07:13:14.227Z,12.30
2019-04-25T07:15:44.353Z,12.50
2019-04-25T07:18:13.970Z,12.60
2019-04-25T07:20:45.287Z,12.70
2019-04-25T07:23:14.483Z,12.70
2019-04-25T07:25:50.974Z,12.80
2019-04-25T07:28:34.786Z,12.90
2019-04-25T07:31:33.465Z,13.00
2019-04-25T07:34:15.494Z,13.20
2019-04-25T07:36:55.627Z,13.20
2019-04-25T07:39:25.538Z,13.40
2019-04-25T07:41:56.624Z,13.40
2019-04-25T07:44:45.355Z,13.50
2019-04-25T07:47:01.975Z,13.60
2019-04-25T07:49:30.853Z,13.70
2019-04-25T07:51:59.777Z,13.80
2019-04-25T07:54:28.961Z,13.90
2019-04-25T07:56:58.967Z,13.90
2019-04-25T07:59:27.999Z,14.10
2019-04-25T08:01:57.692Z,14.20
2019-04-25T08:04:32.571Z,14.20
2019-04-25T08:07:01.488Z,14.30
2019-04-25T08:09:31.415Z,14.40
2019-04-25T08:12:01.456Z,14.40
2019-04-25T08:14:45.939Z,14.40
2019-04-25T08:17:18.571Z,14.50
2019-04-25T08:19:54.962Z,14.70
2019-04-25T08:22:24.001Z,14.90
2019-04-25T08:24:53.858Z,15.00
2019-04-25T08:27:23.229Z,15.20
2019-04-25T08:29:54.215Z,15.30
2019-04-25T08:32:34.825Z,15.40
2019-04-25T08:35:20.371Z,15.60
2019-04-25T08:38:03.705Z,15.70
2019-04-25T08:40:35.731Z,16.00
2019-04-25T08:43:04.248Z,16.10
2019-04-25T08:45:37.359Z,16.10
2019-04-25T08:48:09.620Z,16.10
2019-04-25T08:50:53.723Z,16.10
2019-04-25T08:53:35.335Z,16.10
2019-04-25T08:56:13.331Z,16.30
2019-04-25T08:59:05.526Z,16.60
2019-04-25T09:01:48.108Z,16.50
2019-04-25T09:04:42.643Z,16.40
2019-04-25T09:07:13.456Z,16.60
2019-04-25T09:09:43.992Z,16.70
2019-04-25T09:12:17.291Z,16.90
2019-04-25T09:14:46.468Z,17.00
2019-04-25T09:17:33.192Z,17.00
2019-04-25T09:20:04.038Z,16.90
2019-04-25T09:22:39.945Z,17.00
2019-04-25T09:25:11.393Z,17.10
2019-04-25T09:27:49.263Z,16.90
2019-04-25T09:30:18.284Z,16.90
2019-04-25T09:32:53.522Z,17.10
2019-04-25T09:35:33.382Z,17.10
2019-04-25T09:38:16.215Z,17.00
2019-04-25T09:40:57.178Z,17.00
2019-04-25T09:43:27.150Z,17.10
2019-04-25T09:46:03.512Z,17.20
2019-04-25T09:48:58.052Z,17.30
2019-04-25T09:51:49.326Z,17.50
2019-04-25T09:54:38.118Z,17.70
2019-04-25T09:57:33.464Z,17.60
2019-04-25T10:00:33.401Z,17.60
2019-04-25T10:03:02.491Z,17.80
2019-04-25T10:05:31.528Z,17.80
2019-04-25T10:08:03.392Z,17.80
2019-04-25T10:10:32.704Z,18.00
2019-04-25T10:13:10.936Z,18.00
2019-04-25T10:16:10.505Z,18.00
2019-04-25T10:18:43.731Z,18.00
2019-04-25T10:21:26.131Z,18.10
2019-04-25T10:23:57.088Z,18.10
2019-04-25T10:26:27.704Z,18.10
2019-04-25T10:28:57.571Z,18.40
2019-04-25T10:31:26.623Z,18.70
2019-04-25T10:33:56.653Z,18.90
2019-04-25T10:36:25.641Z,19.20
2019-04-25T10:39:14.478Z,19.30
2019-04-25T10:41:46.158Z,19.30
2019-04-25T10:44:14.258Z,19.10
2019-04-25T10:46:46.864Z,19.20
2019-04-25T10:49:23.562Z,19.50
2019-04-25T10:51:54.798Z,19.50
2019-04-25T10:54:36.100Z,19.70
2019-04-25T10:57:14.841Z,19.70
2019-04-25T10:59:55.205Z,19.60
2019-04-25T11:02:15.278Z,19.70
2019-04-25T11:04:49.810Z,19.70
2019-04-25T11:07:18.840Z,19.60
2019-04-25T11:09:49.200Z,19.60
2019-04-25T11:12:24.619Z,19.60
2019-04-25T11:14:56.131Z,19.60
2019-04-25T11:17:31.149Z,19.70
2019-04-25T11:20:05.491Z,19.70
2019-04-25T11:22:34.271Z,19.90
2019-04-25T11:25:11.116Z,19.70
2019-04-25T11:27:43.882Z,19.70
2019-04-25T11:30:14.683Z,19.60
2019-04-25T11:32:45.161Z,19.80
2019-04-25T11:35:15.384Z,20.00
2019-04-25T11:37:45.305Z,20.00
2019-04-25T11:40:23.509Z,20.00
2019-04-25T11:42:53.015Z,20.00
2019-04-25T11:45:30.840Z,20.00
2019-04-25T11:48:06.015Z,20.00
2019-04-25T11:50:37.708Z,20.10
2019-04-25T11:53:09.854Z,19.90
2019-04-25T11:55:42.587Z,19.80
2019-04-25T11:58:14.646Z,19.90
2019-04-25T12:00:46.003Z,20.10
2019-04-25T12:03:15.565Z,20.30
2019-04-25T12:05:45.854Z,20.40
2019-04-25T12:08:19.679Z,20.30
2019-04-25T12:10:55.628Z,20.40
2019-04-25T12:13:28.601Z,20.50
2019-04-25T12:15:58.504Z,20.50
2019-04-25T12:18:39.639Z,20.40
2019-04-25T12:21:09.493Z,20.40
2019-04-25T12:23:38.416Z,20.40
2019-04-25T12:26:07.343Z,20.40
2019-04-25T12:28:38.369Z,20.30
2019-04-25T12:31:07.212Z,20.40
2019-04-25T12:33:36.168Z,20.40
2019-04-25T12:36:05.152Z,20.50
2019-04-25T12:38:48.311Z,20.40
2019-04-25T12:41:17.241Z,20.30
2019-04-25T12:43:56.517Z,20.30
2019-04-25T12:46:37.800Z,20.30
2019-04-25T12:49:06.753Z,20.60
2019-04-25T12:51:38.822Z,20.40
2019-04-25T12:54:07.833Z,20.50
2019-04-25T12:56:36.769Z,20.40
2019-04-25T12:59:08.776Z,20.30
2019-04-25T13:01:43.332Z,20.40
2019-04-25T13:04:12.553Z,20.70
2019-04-25T13:06:43.769Z,20.70
2019-04-25T13:09:13.785Z,20.60
2019-04-25T13:11:45.985Z,20.30
2019-04-25T13:14:15.793Z,20.60
2019-04-25T13:16:44.862Z,20.80
2019-04-25T13:19:21.070Z,20.80
2019-04-25T13:21:44.392Z,20.70
2019-04-25T13:24:13.228Z,20.60
2019-04-25T13:27:04.127Z,20.40
2019-04-25T13:29:53.304Z,20.20
2019-04-25T13:32:51.563Z,20.30
2019-04-25T13:35:25.480Z,20.60
2019-04-25T13:37:54.387Z,20.80
2019-04-25T13:40:23.749Z,21.10
2019-04-25T13:42:53.680Z,21.30
2019-04-25T13:45:22.942Z,21.10
2019-04-25T13:48:05.066Z,21.30
2019-04-25T13:50:39.088Z,21.60
2019-04-25T13:53:08.119Z,21.60
2019-04-25T13:55:42.799Z,21.50
2019-04-25T13:58:14.236Z,21.70
2019-04-25T14:00:48.157Z,21.70
2019-04-25T14:03:23.625Z,21.50
2019-04-25T14:05:53.979Z,21.50
2019-04-25T14:08:26.938Z,21.50
2019-04-25T14:10:56.977Z,21.40
2019-04-25T14:13:33.804Z,21.10
2019-04-25T14:16:19.637Z,21.00
2019-04-25T14:19:02.637Z,20.80
2019-04-25T14:21:33.165Z,20.50
2019-04-25T14:24:04.300Z,20.40
2019-04-25T14:26:35.289Z,20.40
2019-04-25T14:29:09.439Z,20.30
2019-04-25T14:31:45.426Z,20.70
2019-04-25T14:34:18.476Z,21.00
2019-04-25T14:36:47.319Z,21.50
2019-04-25T14:39:19.876Z,21.70
2019-04-25T14:41:48.670Z,21.90
2019-04-25T14:44:17.633Z,21.70
2019-04-25T14:46:46.472Z,21.50
2019-04-25T14:49:15.361Z,21.50
2019-04-25T14:51:44.330Z,21.40
2019-04-25T14:54:20.487Z,21.60
2019-04-25T14:56:57.714Z,21.20
2019-04-25T14:59:29.742Z,20.90
2019-04-25T15:01:59.826Z,20.60
2019-04-25T15:04:32.062Z,20.70
2019-04-25T15:07:08.204Z,20.90
2019-04-25T15:09:38.262Z,21.00
2019-04-25T15:12:07.351Z,21.40
2019-04-25T15:14:44.292Z,21.60
2019-04-25T15:17:13.458Z,21.90
2019-04-25T15:19:47.368Z,21.80
2019-04-25T15:22:18.274Z,22.00
2019-04-25T15:24:53.468Z,21.70
2019-04-25T15:27:22.373Z,21.60
2019-04-25T15:29:51.321Z,21.60
2019-04-25T15:32:27.471Z,21.90
2019-04-25T15:35:03.348Z,22.10
2019-04-25T15:37:43.170Z,22.60
2019-04-25T15:40:24.102Z,22.70
2019-04-25T15:43:11.321Z,22.30
2019-04-25T15:46:03.980Z,22.00
2019-04-25T15:48:33.870Z,21.90
2019-04-25T15:51:02.810Z,21.50
2019-04-25T15:53:31.672Z,21.10
2019-04-25T15:56:06.615Z,20.90
2019-04-25T15:58:37.788Z,20.60
2019-04-25T16:01:08.644Z,20.70
2019-04-25T16:03:41.620Z,20.60
2019-04-25T16:06:10.633Z,20.60
2019-04-25T16:08:46.009Z,20.50
2019-04-25T16:11:16.835Z,20.40
2019-04-25T16:13:45.713Z,20.40
2019-04-25T16:16:17.741Z,20.30
2019-04-25T16:18:47.691Z,20.40
2019-04-25T16:21:16.685Z,20.30
2019-04-25T16:23:52.348Z,20.20
2019-04-25T16:26:21.306Z,20.10
2019-04-25T16:28:51.253Z,19.90
2019-04-25T16:31:22.963Z,19.80
2019-04-25T16:33:53.847Z,19.70
2019-04-25T16:36:22.831Z,19.60
2019-04-25T16:39:18.663Z,19.60
2019-04-25T16:41:47.677Z,19.50
2019-04-25T16:44:26.569Z,19.40
2019-04-25T16:46:56.414Z,19.40
2019-04-25T16:49:33.553Z,19.40
2019-04-25T16:52:02.468Z,19.30
2019-04-25T16:54:31.609Z,19.20
2019-04-25T16:57:00.549Z,19.20
2019-04-25T16:59:31.318Z,19.00
2019-04-25T17:02:00.375Z,18.80
2019-04-25T17:04:29.899Z,18.80
2019-04-25T17:07:00.328Z,18.70
2019-04-25T17:09:30.437Z,18.60
2019-04-25T17:11:59.527Z,18.60
2019-04-25T17:14:36.233Z,18.50
2019-04-25T17:17:38.056Z,18.50
2019-04-25T17:20:21.555Z,18.40
2019-04-25T17:22:50.555Z,18.40
2019-04-25T17:25:19.427Z,18.30
2019-04-25T17:27:49.499Z,18.20
2019-04-25T17:30:19.023Z,18.10
2019-04-25T17:32:54.926Z,18.10
2019-04-25T17:35:33.944Z,18.10
2019-04-25T17:38:06.597Z,18.00
2019-04-25T17:40:35.660Z,18.00
2019-04-25T17:43:10.894Z,18.00
2019-04-25T17:45:37.236Z,18.00
2019-04-25T17:48:07.093Z,17.90
2019-04-25T17:50:36.019Z,18.00
2019-04-25T17:53:05.041Z,17.90
2019-04-25T17:55:37.395Z,17.90
2019-04-25T17:58:06.492Z,17.80
2019-04-25T18:00:40.486Z,17.80
2019-04-25T18:03:13.529Z,17.70
2019-04-25T18:05:46.036Z,17.70
2019-04-25T18:08:15.316Z,17.80
2019-04-25T18:10:55.183Z,17.70
2019-04-25T18:13:30.451Z,17.70
2019-04-25T18:16:14.116Z,17.70
2019-04-25T18:19:00.955Z,17.70
2019-04-25T18:21:30.906Z,17.60
2019-04-25T18:24:28.127Z,17.50
2019-04-25T18:27:18.955Z,17.40
2019-04-25T18:29:48.844Z,17.40
2019-04-25T18:32:17.880Z,17.40
2019-04-25T18:34:55.972Z,17.40
2019-04-25T18:37:40.615Z,17.40
2019-04-25T18:40:20.711Z,17.30
2019-04-25T18:43:13.981Z,17.30
2019-04-25T18:45:48.472Z,17.30
2019-04-25T18:48:17.334Z,17.30
2019-04-25T18:50:46.785Z,17.30
2019-04-25T18:53:34.804Z,17.30
2019-04-25T18:56:24.785Z,17.20
2019-04-25T18:59:09.864Z,17.20
2019-04-25T19:02:04.616Z,17.20
2019-04-25T19:04:47.010Z,17.20
2019-04-25T19:07:22.486Z,17.20
2019-04-25T19:09:47.151Z,17.30
2019-04-25T19:12:25.151Z,17.30
2019-04-25T19:15:00.265Z,17.30
2019-04-25T19:17:29.097Z,17.30
2019-04-25T19:20:01.104Z,17.30
2019-04-25T19:22:32.063Z,17.30
2019-04-25T19:25:07.256Z,17.30
2019-04-25T19:27:42.105Z,17.20
2019-04-25T19:30:13.538Z,17.20
2019-04-25T19:32:56.851Z,17.20
2019-04-25T19:35:25.789Z,17.20
2019-04-25T19:37:56.663Z,17.20
2019-04-25T19:40:44.023Z,17.30
2019-04-25T19:43:17.658Z,17.20
2019-04-25T19:45:49.679Z,17.10
2019-04-25T19:48:30.332Z,17.10
2019-04-25T19:50:59.235Z,17.10
2019-04-25T19:53:28.169Z,17.10
2019-04-25T19:55:57.000Z,17.20
2019-04-25T19:58:25.977Z,17.10
2019-04-25T20:00:54.868Z,17.10
2019-04-25T20:03:47.631Z,17.10
2019-04-25T20:06:18.352Z,17.10
2019-04-25T20:09:15.423Z,17.20
2019-04-25T20:11:47.747Z,17.30
2019-04-25T20:14:16.770Z,17.30
2019-04-25T20:16:47.667Z,17.20
2019-04-25T20:19:19.948Z,17.20
2019-04-25T20:21:52.119Z,17.10
2019-04-25T20:24:21.153Z,17.00
2019-04-25T20:26:50.472Z,17.00
2019-04-25T20:29:19.361Z,17.00
2019-04-25T20:31:54.893Z,17.00
2019-04-25T20:34:23.859Z,17.00
2019-04-25T20:36:53.750Z,17.00
2019-04-25T20:39:24.665Z,17.00
2019-04-25T20:42:00.811Z,17.00
2019-04-25T20:44:39.060Z,17.00
2019-04-25T20:47:14.237Z,17.00
2019-04-25T20:49:46.688Z,17.00
2019-04-25T20:52:15.987Z,17.00
2019-04-25T20:54:44.823Z,17.00
2019-04-25T20:57:13.696Z,17.00
2019-04-25T20:59:42.607Z,16.90
2019-04-25T21:02:14.561Z,17.00
2019-04-25T21:04:43.533Z,17.00
2019-04-25T21:07:12.520Z,16.90
2019-04-25T21:09:41.514Z,16.90
2019-04-25T21:12:10.313Z,16.90
2019-04-25T21:14:46.301Z,16.90
2019-04-25T21:17:19.236Z,16.80
2019-04-25T21:19:48.966Z,16.80
2019-04-25T21:22:19.383Z,16.90
2019-04-25T21:24:48.309Z,16.90
2019-04-25T21:27:20.453Z,16.80
2019-04-25T21:29:52.019Z,16.80
2019-04-25T21:32:22.386Z,16.90
2019-04-25T21:34:52.919Z,16.90
2019-04-25T21:37:22.919Z,16.80
2019-04-25T21:40:12.286Z,16.80
2019-04-25T21:43:06.289Z,16.80
2019-04-25T21:45:35.488Z,16.80
2019-04-25T21:48:05.021Z,16.80
2019-04-25T21:50:34.379Z,16.70
2019-04-25T21:53:06.515Z,16.70
2019-04-25T21:55:37.668Z,16.70
2019-04-25T21:58:06.848Z,16.70
2019-04-25T22:01:06.484Z,16.70
2019-04-25T22:03:35.532Z,16.70
2019-04-25T22:06:05.104Z,16.70
2019-04-25T22:08:35.125Z,16.60
2019-04-25T22:11:04.060Z,16.60
2019-04-25T22:13:33.253Z,16.60
2019-04-25T22:16:02.569Z,16.60
2019-04-25T22:18:38.320Z,16.60
2019-04-25T22:21:07.493Z,16.60
2019-04-25T22:23:36.716Z,16.60
2019-04-25T22:26:13.088Z,16.60
2019-04-25T22:28:42.291Z,16.60
2019-04-25T22:31:22.261Z,16.60
2019-04-25T22:34:10.566Z,16.60
2019-04-25T22:36:57.577Z,16.60
2019-04-25T22:39:27.808Z,16.70
2019-04-25T22:42:00.929Z,16.70
2019-04-25T22:44:31.898Z,16.70
2019-04-25T22:47:02.317Z,16.70
2019-04-25T22:49:38.358Z,16.70
2019-04-25T22:52:13.494Z,16.70
2019-04-25T22:54:42.532Z,16.70
2019-04-25T22:57:19.451Z,16.70
2019-04-25T22:59:48.363Z,16.60
2019-04-25T23:02:35.984Z,16.70
2019-04-25T23:05:15.776Z,16.70
2019-04-25T23:07:43.632Z,16.50
2019-04-25T23:10:12.826Z,16.50
2019-04-25T23:12:48.761Z,16.40
2019-04-25T23:15:24.668Z,16.50
2019-04-25T23:17:53.805Z,16.50
2019-04-25T23:20:22.695Z,16.40
2019-04-25T23:22:51.592Z,16.40
2019-04-25T23:25:30.391Z,16.30
2019-04-25T23:28:18.477Z,16.20
2019-04-25T23:31:01.564Z,16.10
2019-04-25T23:33:30.465Z,15.90
2019-04-25T23:36:05.622Z,15.80
2019-04-25T23:38:37.776Z,15.60
2019-04-25T23:41:15.969Z,15.40
2019-04-25T23:43:45.965Z,15.20
2019-04-25T23:46:14.845Z,15.10
2019-04-25T23:48:50.007Z,15.10
2019-04-25T23:51:18.904Z,15.10
2019-04-25T23:53:48.104Z,15.10
2019-04-25T23:56:17.335Z,15.00
2019-04-25T23:58:49.758Z,14.90
